Time;durP1;ratioP1;P1;durP2;ratioP2;P2;SDS_P1;SDS_P2;PMS_P1;PMS_P2;Temp;Humidity;BMP_temperature;BMP_pressure;BME280_temperature;BME280_humidity;BME280_pressure;Samples;Min_cycle;Max_cycle;Signal;HPM_P1;HPM_P2
2023/05/10 13:34:24;;;;;;;9.03;2.90;;;23.30;66.60;;;;;;5063380;28;20946;-67
2023/05/10 13:36:49;;;;;;;2.50;2.20;;;23.40;68.20;;;;;;5051796;28;21084;-68
2023/05/10 13:39:15;;;;;;;8.63;5.10;;;23.50;69.90;;;;;;5052959;28;20434;-67
2023/05/10 13:41:41;;;;;;;4.73;4.27;;;23.40;70.00;;;;;;5049316;28;20253;-66
2023/05/10 13:44:07;;;;;;;5.40;2.67;;;23.40;70.10;;;;;;5053399;28;20436;-66
2023/05/10 13:46:32;;;;;;;2.77;2.57;;;23.50;70.20;;;;;;5054444;28;20181;-67
2023/05/10 13:48:58;;;;;;;4.80;3.03;;;23.40;70.50;;;;;;5047974;28;20655;-66
2023/05/10 13:51:23;;;;;;;4.00;2.97;;;23.50;69.90;;;;;;5050005;28;20183;-67
2023/05/10 13:53:49;;;;;;;5.30;3.00;;;23.50;70.90;;;;;;5053408;28;20198;-66
2023/05/10 13:56:15;;;;;;;4.33;3.93;;;23.50;70.30;;;;;;5050994;28;20624;-66
2023/05/10 13:58:41;;;;;;;4.47;3.80;;;23.80;69.30;;;;;;5057631;28;20673;-66
2023/05/10 14:01:07;;;;;;;3.27;2.97;;;23.90;68.00;;;;;;5050241;28;20444;-66
2023/05/10 14:03:33;;;;;;;7.33;3.53;;;23.80;67.60;;;;;;5052615;28;20466;-66
2023/05/10 14:05:58;;;;;;;2.77;2.40;;;23.60;67.00;;;;;;5051487;28;20415;-66
2023/05/10 14:08:24;;;;;;;3.70;2.87;;;23.30;67.10;;;;;;5051231;28;20202;-66
2023/05/10 14:10:50;;;;;;;2.60;2.40;;;23.60;66.60;;;;;;5051360;28;20176;-66
2023/05/10 14:13:16;;;;;;;6.30;3.90;;;23.60;66.30;;;;;;5057853;28;20205;-67
2023/05/10 14:15:41;;;;;;;2.93;2.50;;;23.60;66.50;;;;;;5053770;28;20418;-66
2023/05/10 14:18:07;;;;;;;2.50;2.30;;;23.70;66.30;;;;;;5048380;28;20194;-66
2023/05/10 14:20:33;;;;;;;4.13;2.80;;;23.80;63.90;;;;;;5047637;28;20173;-66
2023/05/10 14:22:59;;;;;;;2.40;2.20;;;23.90;64.40;;;;;;5056036;28;20584;-66
2023/05/10 14:25:25;;;;;;;2.90;2.60;;;23.80;64.50;;;;;;5054670;28;20507;-66
2023/05/10 14:27:54;;;;;;;7.57;3.27;;;23.90;65.50;;;;;;5048360;28;20457;-65
2023/05/10 14:30:20;;;;;;;7.87;2.57;;;23.80;66.80;;;;;;5049020;28;20417;-69
2023/05/10 14:32:46;;;;;;;4.10;2.03;;;23.70;65.00;;;;;;5048387;28;20515;-69
2023/05/10 14:35:12;;;;;;;7.10;2.57;;;23.70;64.00;;;;;;5055871;28;20910;-69
2023/05/10 14:37:38;;;;;;;3.37;2.60;;;24.00;64.40;;;;;;5046957;28;20200;-69
2023/05/10 14:40:04;;;;;;;2.10;1.90;;;24.00;63.90;;;;;;5048539;28;20411;-70
2023/05/10 14:42:31;;;;;;;3.10;2.33;;;23.90;63.30;;;;;;5050203;28;20189;-70
2023/05/10 14:44:56;;;;;;;2.63;2.20;;;24.00;63.00;;;;;;5048314;28;20406;-68
2023/05/10 14:47:22;;;;;;;3.90;2.00;;;24.00;62.00;;;;;;5041065;28;20813;-71
2023/05/10 14:49:47;;;;;;;3.73;2.20;;;23.80;61.30;;;;;;5040087;28;20186;-71
2023/05/10 14:52:14;;;;;;;6.97;2.70;;;23.80;62.20;;;;;;5033995;28;20194;-70
2023/05/10 14:54:40;;;;;;;2.47;2.23;;;23.80;63.70;;;;;;5032864;28;20167;-71
2023/05/10 14:57:06;;;;;;;2.80;2.00;;;23.70;64.70;;;;;;5041929;28;20463;-70
2023/05/10 14:59:32;;;;;;;4.20;2.10;;;23.70;64.70;;;;;;5039559;28;20933;-72
2023/05/10 15:01:57;;;;;;;3.10;2.07;;;23.60;65.60;;;;;;5038690;28;20555;-72
2023/05/10 15:04:23;;;;;;;4.07;2.20;;;23.70;65.50;;;;;;5033722;28;20178;-70
2023/05/10 15:06:48;;;;;;;3.83;2.93;;;23.90;64.60;;;;;;5034946;28;20261;-70
2023/05/10 15:09:16;;;;;;;2.60;2.40;;;24.00;63.60;;;;;;5041743;28;20756;-70
2023/05/10 15:11:41;;;;;;;4.00;2.40;;;24.10;61.60;;;;;;5037322;28;20483;-70
2023/05/10 15:14:07;;;;;;;7.63;2.70;;;24.10;61.70;;;;;;5033726;28;20506;-70
2023/05/10 15:16:33;;;;;;;5.07;2.77;;;24.10;61.70;;;;;;5036463;28;20168;-71
2023/05/10 15:18:58;;;;;;;4.10;3.70;;;23.90;63.10;;;;;;5033971;28;20192;-71
2023/05/10 15:21:24;;;;;;;2.70;2.50;;;24.00;63.90;;;;;;5041017;28;20259;-70
2023/05/10 15:23:49;;;;;;;2.67;2.47;;;23.70;63.90;;;;;;5036215;28;20617;-71
2023/05/10 15:26:15;;;;;;;8.70;6.27;;;23.40;63.80;;;;;;5039121;28;20199;-70
2023/05/10 15:28:41;;;;;;;6.53;3.07;;;23.30;64.70;;;;;;5037813;28;20205;-70
2023/05/10 15:31:06;;;;;;;3.33;3.10;;;23.10;65.10;;;;;;5032321;28;20185;-74
2023/05/10 15:33:32;;;;;;;10.60;5.23;;;23.00;64.70;;;;;;5026669;28;20204;-70
2023/05/10 15:35:58;;;;;;;11.10;8.07;;;22.90;64.70;;;;;;5038296;28;20177;-70
2023/05/10 15:38:23;;;;;;;7.37;6.63;;;22.80;66.00;;;;;;5045126;28;20587;-70
2023/05/10 15:40:49;;;;;;;3.17;2.87;;;22.70;65.90;;;;;;5039269;28;20167;-71
2023/05/10 15:43:15;;;;;;;6.20;4.93;;;22.60;66.00;;;;;;5043887;28;20267;-71
2023/05/10 15:45:40;;;;;;;2.57;2.37;;;22.60;66.70;;;;;;5037744;28;20175;-70
2023/05/10 15:48:06;;;;;;;8.53;4.27;;;22.60;66.60;;;;;;5039536;28;20196;-70
2023/05/10 15:50:32;;;;;;;3.73;3.23;;;22.50;66.30;;;;;;5031927;28;20261;-70
2023/05/10 15:52:57;;;;;;;8.03;7.20;;;22.50;67.00;;;;;;5033793;28;20585;-70
2023/05/10 15:55:23;;;;;;;11.50;9.57;;;22.50;67.90;;;;;;5037506;28;20286;-70
2023/05/10 15:57:49;;;;;;;11.13;9.00;;;22.50;68.70;;;;;;5037939;28;20224;-71
2023/05/10 16:00:15;;;;;;;13.03;9.50;;;22.40;69.40;;;;;;5018045;28;20200;-71
2023/05/10 16:02:41;;;;;;;8.20;6.73;;;22.30;69.80;;;;;;5018655;28;20174;-71
2023/05/10 16:05:08;;;;;;;12.73;11.37;;;22.20;69.70;;;;;;5034255;28;20794;-71
2023/05/10 16:07:34;;;;;;;7.47;6.77;;;22.10;70.40;;;;;;5042236;28;20204;-70
2023/05/10 16:10:02;;;;;;;5.10;3.13;;;22.10;71.30;;;;;;5040166;28;20457;-70
2023/05/10 16:12:29;;;;;;;3.40;3.10;;;22.10;71.40;;;;;;5034142;28;20249;-69
2023/05/10 16:14:55;;;;;;;3.63;3.30;;;22.20;71.30;;;;;;5043320;28;20907;-71
2023/05/10 16:17:21;;;;;;;3.67;3.37;;;22.30;71.80;;;;;;5036629;28;20476;-70
2023/05/10 16:19:47;;;;;;;3.70;2.70;;;22.40;71.50;;;;;;5028735;28;20555;-70
2023/05/10 16:22:13;;;;;;;3.10;2.10;;;22.30;72.50;;;;;;5035321;28;20247;-68
2023/05/10 16:24:38;;;;;;;5.57;2.70;;;22.30;71.70;;;;;;5032400;28;20331;-68
2023/05/10 16:27:04;;;;;;;3.00;2.70;;;22.20;71.60;;;;;;5038626;28;21070;-68
2023/05/10 16:29:30;;;;;;;5.03;2.63;;;22.20;72.10;;;;;;5036216;28;20216;-69
2023/05/10 16:31:56;;;;;;;2.30;2.10;;;22.20;72.10;;;;;;5042662;28;20185;-68
2023/05/10 16:34:23;;;;;;;2.80;2.17;;;22.00;72.60;;;;;;5036590;28;20461;-68
2023/05/10 16:36:49;;;;;;;2.90;2.70;;;22.00;73.10;;;;;;5041914;28;20291;-70
2023/05/10 16:39:15;;;;;;;3.27;2.97;;;21.90;74.10;;;;;;5020286;28;20473;-68
2023/05/10 16:41:41;;;;;;;3.17;2.60;;;22.00;74.70;;;;;;5033974;28;20858;-68
2023/05/10 16:44:06;;;;;;;2.77;2.57;;;21.90;77.80;;;;;;5038898;28;20591;-68
2023/05/10 16:46:32;;;;;;;3.37;3.07;;;21.80;79.60;;;;;;5039558;28;20256;-69
2023/05/10 16:48:59;;;;;;;4.50;4.10;;;21.80;82.00;;;;;;5041124;28;20197;-68
2023/05/10 16:51:25;;;;;;;4.43;4.03;;;21.60;91.00;;;;;;5039810;28;20175;-68
2023/05/10 16:53:50;;;;;;;5.13;3.70;;;21.40;94.00;;;;;;5041609;28;20538;-69
2023/05/10 16:56:21;;;;;;;4.17;3.77;;;21.40;95.00;;;;;;5027246;28;20512;-68
2023/05/10 16:58:49;;;;;;;5.43;4.17;;;21.30;97.00;;;;;;5039894;28;20194;-68
2023/05/10 17:01:15;;;;;;;4.73;4.20;;;21.20;98.10;;;;;;5032501;28;20828;-69
2023/05/10 17:03:41;;;;;;;4.10;3.80;;;21.00;99.80;;;;;;5039483;28;20416;-68
2023/05/10 17:06:07;;;;;;;4.90;4.30;;;20.80;99.90;;;;;;5029810;28;20494;-68
2023/05/10 17:08:32;;;;;;;4.97;4.57;;;20.60;99.90;;;;;;5032666;28;20193;-69
2023/05/10 17:11:02;;;;;;;4.53;4.13;;;20.50;99.90;;;;;;5040008;28;20242;-71
2023/05/10 17:13:28;;;;;;;7.30;4.43;;;20.40;99.90;;;;;;5036787;28;20215;-69
2023/05/10 17:15:53;;;;;;;4.33;4.00;;;20.30;99.90;;;;;;5031590;28;20785;-68
2023/05/10 17:18:19;;;;;;;5.53;4.33;;;20.20;99.90;;;;;;5025829;28;20289;-68
2023/05/10 17:20:45;;;;;;;5.23;4.73;;;20.00;99.90;;;;;;5022888;28;20181;-69
2023/05/10 17:23:10;;;;;;;4.73;4.33;;;20.00;99.90;;;;;;5013653;28;20178;-69
2023/05/10 17:25:36;;;;;;;5.27;3.67;;;20.00;99.90;;;;;;5029701;28;20665;-69
2023/05/10 17:28:02;;;;;;;5.17;4.67;;;19.90;99.90;;;;;;5032709;28;20279;-69
2023/05/10 17:30:31;;;;;;;4.77;4.27;;;19.80;99.90;;;;;;5031539;28;20188;-68
2023/05/10 17:32:59;;;;;;;6.40;4.97;;;19.70;99.90;;;;;;5034375;28;20468;-68
2023/05/10 17:35:25;;;;;;;6.20;5.73;;;19.50;99.90;;;;;;5027883;28;20934;-68
2023/05/10 17:37:51;;;;;;;5.43;5.00;;;19.40;99.90;;;;;;5019201;28;20505;-69
2023/05/10 17:40:17;;;;;;;5.30;4.90;;;19.40;99.90;;;;;;5035466;28;20660;-69
2023/05/10 17:42:43;;;;;;;5.93;5.30;;;19.30;99.90;;;;;;5027089;28;20232;-70
2023/05/10 17:45:09;;;;;;;5.73;5.07;;;19.20;99.90;;;;;;5037978;28;20230;-69
2023/05/10 17:47:34;;;;;;;5.40;5.00;;;19.20;99.90;;;;;;5037272;28;20533;-70
2023/05/10 17:50:00;;;;;;;8.80;7.90;;;19.10;99.90;;;;;;5026615;28;20761;-70
2023/05/10 17:52:27;;;;;;;6.17;5.47;;;19.00;99.90;;;;;;5037321;28;20973;-69
2023/05/10 17:54:52;;;;;;;5.23;4.77;;;19.00;99.90;;;;;;5026894;28;20277;-69
2023/05/10 17:57:19;;;;;;;6.20;5.17;;;18.90;99.90;;;;;;5040382;28;20416;-68
2023/05/10 17:59:45;;;;;;;6.47;5.70;;;18.80;99.90;;;;;;5029138;28;20283;-68
2023/05/10 18:02:11;;;;;;;6.83;5.37;;;18.80;99.90;;;;;;5017915;28;20963;-68
2023/05/10 18:04:39;;;;;;;6.73;5.30;;;18.80;99.90;;;;;;5034947;28;20422;-69
2023/05/10 18:07:05;;;;;;;5.93;5.10;;;18.70;99.90;;;;;;5024287;28;20415;-68
2023/05/10 18:09:32;;;;;;;5.47;4.97;;;18.60;99.90;;;;;;5036611;28;20433;-69
2023/05/10 18:11:58;;;;;;;5.57;5.07;;;18.50;99.90;;;;;;5025667;28;20210;-69
2023/05/10 18:14:27;;;;;;;8.27;5.53;;;18.50;99.90;;;;;;5034773;28;20921;-68
2023/05/10 18:16:55;;;;;;;6.90;6.00;;;18.30;99.90;;;;;;5028312;28;20207;-68
2023/05/10 18:19:24;;;;;;;6.37;5.77;;;18.30;99.90;;;;;;5024544;28;20455;-68
2023/05/10 18:21:53;;;;;;;5.83;5.33;;;18.20;99.90;;;;;;5032097;28;20454;-70
2023/05/10 18:24:21;;;;;;;5.57;4.67;;;18.10;99.90;;;;;;5031258;28;20852;-69
2023/05/10 18:26:47;;;;;;;5.80;5.30;;;18.10;99.90;;;;;;5039455;28;20516;-68
2023/05/10 18:29:13;;;;;;;6.23;5.63;;;18.00;99.90;;;;;;5035006;28;20598;-70
2023/05/10 18:31:38;;;;;;;6.03;5.50;;;17.90;99.90;;;;;;5038952;28;20225;-69
2023/05/10 18:34:04;;;;;;;6.93;5.17;;;17.90;99.90;;;;;;5033165;28;20228;-68
2023/05/10 18:36:31;;;;;;;6.23;5.63;;;17.80;99.90;;;;;;5021987;28;20257;-68
2023/05/10 18:38:57;;;;;;;6.40;5.90;;;17.70;99.90;;;;;;5031148;28;20460;-67
2023/05/10 18:41:25;;;;;;;6.00;5.40;;;17.70;99.90;;;;;;5035248;28;20492;-68
2023/05/10 18:43:51;;;;;;;6.97;6.30;;;17.60;99.90;;;;;;5036794;28;20224;-68
2023/05/10 18:46:16;;;;;;;6.00;5.00;;;17.50;99.90;;;;;;5034082;28;20436;-67
2023/05/10 18:48:42;;;;;;;6.53;5.70;;;17.50;99.90;;;;;;5042244;28;20296;-69
2023/05/10 18:51:08;;;;;;;6.00;5.40;;;17.40;99.90;;;;;;5036568;28;20183;-68
2023/05/10 18:53:34;;;;;;;10.27;5.67;;;17.30;99.90;;;;;;5032990;28;20212;-69
2023/05/10 18:55:59;;;;;;;6.37;5.87;;;17.20;99.90;;;;;;5029527;28;20207;-68
2023/05/10 18:58:28;;;;;;;5.80;5.30;;;17.20;99.90;;;;;;5034038;28;20202;-68
2023/05/10 19:00:54;;;;;;;6.27;5.30;;;17.10;99.90;;;;;;5035738;28;20189;-68
2023/05/10 19:03:21;;;;;;;6.47;4.97;;;17.10;99.90;;;;;;5037002;28;20442;-68
2023/05/10 19:05:47;;;;;;;8.90;6.00;;;17.10;99.90;;;;;;5036998;28;20415;-69
2023/05/10 19:08:16;;;;;;;6.30;5.80;;;17.00;99.90;;;;;;5026144;28;20498;-68
2023/05/10 19:10:42;;;;;;;7.90;6.27;;;16.90;99.90;;;;;;5026265;28;20432;-68
2023/05/10 19:13:08;;;;;;;10.03;7.97;;;16.90;99.90;;;;;;5025848;28;20459;-68
2023/05/10 19:15:34;;;;;;;9.90;7.23;;;16.90;99.90;;;;;;5034593;28;20418;-68
2023/05/10 19:17:59;;;;;;;9.67;8.67;;;16.80;99.90;;;;;;5024351;28;20196;-68
2023/05/10 19:20:25;;;;;;;8.80;6.83;;;16.80;99.90;;;;;;5022506;28;20646;-68
2023/05/10 19:22:51;;;;;;;8.27;6.17;;;16.80;99.90;;;;;;5033497;28;20200;-69
2023/05/10 19:25:17;;;;;;;8.13;6.90;;;16.80;99.90;;;;;;5033925;28;20188;-68
2023/05/10 19:27:42;;;;;;;8.23;6.97;;;16.90;99.90;;;;;;5032074;28;20785;-69
2023/05/10 19:30:08;;;;;;;7.67;6.90;;;16.80;99.90;;;;;;5031673;28;20177;-69
2023/05/10 19:32:34;;;;;;;7.33;6.63;;;16.80;99.90;;;;;;5041146;28;20202;-68
2023/05/10 19:34:59;;;;;;;7.73;6.70;;;16.60;99.90;;;;;;5017175;28;20772;-68
2023/05/10 19:37:25;;;;;;;10.20;7.67;;;16.50;99.90;;;;;;5033975;28;20174;-68
2023/05/10 19:39:51;;;;;;;8.27;6.60;;;16.50;99.90;;;;;;5031088;28;20274;-69
2023/05/10 19:42:17;;;;;;;8.93;7.23;;;16.40;99.90;;;;;;5017322;28;20579;-68
2023/05/10 19:44:43;;;;;;;7.07;6.30;;;16.40;99.90;;;;;;5029414;28;20418;-68
2023/05/10 19:47:08;;;;;;;7.03;6.43;;;16.40;99.90;;;;;;5031339;28;20627;-68
2023/05/10 19:49:35;;;;;;;7.03;6.30;;;16.40;99.90;;;;;;5033462;28;20583;-69
2023/05/10 19:52:02;;;;;;;8.73;7.93;;;16.40;99.90;;;;;;5028968;28;20185;-68
2023/05/10 19:54:27;;;;;;;8.50;6.90;;;16.50;99.90;;;;;;5034652;28;20556;-68
2023/05/10 19:56:53;;;;;;;13.30;7.53;;;16.40;99.90;;;;;;5025929;28;20559;-68
2023/05/10 19:59:19;;;;;;;7.40;6.70;;;16.40;99.90;;;;;;5032728;28;20188;-68
2023/05/10 20:01:45;;;;;;;8.93;7.50;;;16.30;99.90;;;;;;5025338;28;20412;-68
2023/05/10 20:04:11;;;;;;;8.77;7.30;;;16.20;99.90;;;;;;5032863;28;20205;-68
2023/05/10 20:06:37;;;;;;;9.50;7.40;;;16.20;99.90;;;;;;5030708;28;20430;-68
2023/05/10 20:09:02;;;;;;;10.13;7.20;;;16.20;99.90;;;;;;5022244;28;20442;-68
2023/05/10 20:11:28;;;;;;;10.43;7.20;;;16.10;99.90;;;;;;5030347;28;21000;-68
2023/05/10 20:13:54;;;;;;;9.80;7.30;;;16.00;99.90;;;;;;5033886;28;20449;-67
2023/05/10 20:16:20;;;;;;;8.03;7.33;;;16.00;99.90;;;;;;5031395;28;20168;-68
2023/05/10 20:18:45;;;;;;;8.07;7.33;;;15.90;99.90;;;;;;5027447;28;20268;-67
2023/05/10 20:21:11;;;;;;;8.27;6.60;;;15.90;99.90;;;;;;5035424;28;20719;-68
2023/05/10 20:23:37;;;;;;;9.93;7.17;;;15.90;99.90;;;;;;5028206;28;20208;-68
2023/05/10 20:26:03;;;;;;;9.30;8.40;;;15.80;99.90;;;;;;5036415;28;20350;-68
2023/05/10 20:28:29;;;;;;;8.67;7.87;;;15.70;99.90;;;;;;5031101;28;20527;-68
2023/05/10 20:30:55;;;;;;;9.27;7.97;;;15.70;99.90;;;;;;5039057;28;20183;-67
2023/05/10 20:33:24;;;;;;;8.07;7.30;;;15.70;99.90;;;;;;5036291;28;20302;-67
2023/05/10 20:35:51;;;;;;;8.43;7.20;;;15.70;99.90;;;;;;5023186;28;20422;-68
2023/05/10 20:38:17;;;;;;;12.70;8.20;;;15.60;99.90;;;;;;5031194;28;20473;-68
2023/05/10 20:40:43;;;;;;;9.50;8.47;;;15.70;99.90;;;;;;5021745;28;20443;-69
2023/05/10 20:43:09;;;;;;;9.10;7.53;;;15.70;99.90;;;;;;5033844;28;20890;-68
2023/05/10 20:45:36;;;;;;;10.87;8.30;;;15.60;99.90;;;;;;5031700;28;20425;-68
2023/05/10 20:48:02;;;;;;;9.13;8.33;;;15.60;99.90;;;;;;5037433;28;20694;-68
2023/05/10 20:50:28;;;;;;;11.03;8.67;;;15.50;99.90;;;;;;5035518;28;20423;-68
2023/05/10 20:52:53;;;;;;;9.13;8.23;;;15.50;99.90;;;;;;5036164;28;20451;-67
2023/05/10 20:55:19;;;;;;;8.50;7.70;;;15.50;99.90;;;;;;5026627;28;20218;-68
2023/05/10 20:57:45;;;;;;;8.27;7.33;;;15.40;99.90;;;;;;5037875;28;20190;-68
2023/05/10 21:00:12;;;;;;;9.40;8.40;;;15.40;99.90;;;;;;5029164;28;20482;-68
2023/05/10 21:02:42;;;;;;;10.33;9.33;;;15.30;99.90;;;;;;5027918;28;20933;-68
2023/05/10 21:05:08;;;;;;;9.77;8.90;;;15.30;99.90;;;;;;5017858;28;21004;-68
2023/05/10 21:07:33;;;;;;;12.30;9.27;;;15.30;99.90;;;;;;5042793;28;20590;-68
2023/05/10 21:09:59;;;;;;;9.20;8.30;;;15.30;99.90;;;;;;5021199;28;20199;-68
2023/05/10 21:12:25;;;;;;;10.30;8.67;;;15.20;99.90;;;;;;5032022;28;20190;-68
2023/05/10 21:14:50;;;;;;;10.40;8.97;;;15.10;99.90;;;;;;5038749;28;20599;-68
2023/05/10 21:17:16;;;;;;;10.10;8.90;;;15.10;99.90;;;;;;5031332;28;20175;-68
2023/05/10 21:19:41;;;;;;;10.90;9.90;;;15.00;99.90;;;;;;5009533;28;20184;-69
2023/05/10 21:22:07;;;;;;;13.80;9.33;;;15.00;99.90;;;;;;5017946;28;20195;-67
2023/05/10 21:24:34;;;;;;;11.53;9.83;;;14.90;99.90;;;;;;5011279;28;20175;-68
2023/05/10 21:27:00;;;;;;;8.97;8.07;;;14.90;99.90;;;;;;5013317;28;20845;-67
2023/05/10 21:29:26;;;;;;;9.47;8.43;;;14.90;99.90;;;;;;5006683;28;20971;-68
2023/05/10 21:31:51;;;;;;;12.03;9.57;;;14.90;99.90;;;;;;5017467;28;20719;-69
2023/05/10 21:34:17;;;;;;;10.67;9.33;;;14.80;99.90;;;;;;5002556;28;20971;-68
2023/05/10 21:36:43;;;;;;;12.20;10.20;;;14.80;99.90;;;;;;5008070;28;20183;-68
2023/05/10 21:39:09;;;;;;;10.80;9.73;;;14.80;99.90;;;;;;5009521;28;20195;-67
2023/05/10 21:41:35;;;;;;;13.87;10.37;;;14.80;99.90;;;;;;5016630;28;20202;-67
2023/05/10 21:44:00;;;;;;;9.87;8.90;;;14.80;99.90;;;;;;5006705;28;21023;-67
2023/05/10 21:46:26;;;;;;;10.10;9.10;;;14.70;99.90;;;;;;5008204;28;20184;-68
2023/05/10 21:48:52;;;;;;;11.43;9.30;;;14.80;99.90;;;;;;5008741;28;20202;-68
2023/05/10 21:51:17;;;;;;;11.23;10.03;;;14.70;99.90;;;;;;5010480;28;20183;-69
2023/05/10 21:53:43;;;;;;;11.40;8.83;;;14.80;99.90;;;;;;5013009;28;20191;-69
2023/05/10 21:56:08;;;;;;;10.03;9.00;;;14.70;99.90;;;;;;5012086;28;20547;-68
2023/05/10 21:58:34;;;;;;;9.00;8.10;;;14.60;99.90;;;;;;5013686;28;20214;-68
2023/05/10 22:00:59;;;;;;;9.70;8.40;;;14.60;99.90;;;;;;5013943;28;20206;-67
2023/05/10 22:03:25;;;;;;;10.30;9.03;;;14.50;99.90;;;;;;5011450;28;20181;-68
2023/05/10 22:05:51;;;;;;;9.57;7.90;;;14.50;99.90;;;;;;5021430;28;20626;-69
2023/05/10 22:08:16;;;;;;;13.03;9.10;;;14.50;99.90;;;;;;5017172;28;20422;-68
2023/05/10 22:10:42;;;;;;;10.33;9.33;;;14.50;99.90;;;;;;5008999;28;20736;-68
2023/05/10 22:13:07;;;;;;;10.93;9.80;;;14.60;99.90;;;;;;5014442;28;20223;-68
2023/05/10 22:15:33;;;;;;;10.77;8.67;;;14.70;99.90;;;;;;5014965;28;20902;-68
2023/05/10 22:17:59;;;;;;;9.57;7.90;;;14.60;99.90;;;;;;5020673;28;20501;-69
2023/05/10 22:20:24;;;;;;;10.53;8.97;;;14.60;99.90;;;;;;5014268;28;20254;-68
2023/05/10 22:22:50;;;;;;;14.43;8.00;;;14.60;99.90;;;;;;5023757;28;20186;-68
2023/05/10 22:25:16;;;;;;;8.97;8.03;;;14.60;99.90;;;;;;5010921;28;20187;-68
2023/05/10 22:27:41;;;;;;;10.27;8.20;;;14.60;99.90;;;;;;5023580;28;20198;-69
2023/05/10 22:30:07;;;;;;;9.43;8.63;;;14.50;99.90;;;;;;5015263;28;20180;-68
2023/05/10 22:32:33;;;;;;;11.40;10.00;;;14.50;99.90;;;;;;5017065;28;20196;-67
2023/05/10 22:34:58;;;;;;;10.00;8.23;;;14.50;99.90;;;;;;5014189;28;20433;-67
2023/05/10 22:37:24;;;;;;;9.13;8.23;;;14.50;99.90;;;;;;5009463;28;20177;-67
2023/05/10 22:39:50;;;;;;;9.40;8.40;;;14.40;99.90;;;;;;5019139;28;20171;-67
2023/05/10 22:42:15;;;;;;;9.37;8.40;;;14.40;99.90;;;;;;5006028;28;20211;-68
2023/05/10 22:44:42;;;;;;;10.10;9.20;;;14.40;99.90;;;;;;5010619;28;20201;-68
2023/05/10 22:47:07;;;;;;;13.63;10.30;;;14.40;99.90;;;;;;5016206;28;20172;-68
2023/05/10 22:49:33;;;;;;;12.10;9.87;;;14.50;99.90;;;;;;5011526;28;20458;-68
2023/05/10 22:51:59;;;;;;;9.53;8.57;;;14.50;99.90;;;;;;5019103;28;20171;-69
2023/05/10 22:54:25;;;;;;;18.43;8.50;;;14.40;99.90;;;;;;5029320;28;20207;-69
2023/05/10 22:56:50;;;;;;;10.83;9.17;;;14.40;99.90;;;;;;5038769;28;20178;-67
2023/05/10 22:59:16;;;;;;;12.77;9.77;;;14.40;99.90;;;;;;5027168;28;20466;-67
2023/05/10 23:01:41;;;;;;;13.43;9.40;;;14.40;99.90;;;;;;5024253;28;20172;-67
2023/05/10 23:04:07;;;;;;;13.17;9.40;;;14.40;99.90;;;;;;5032704;28;20181;-68
2023/05/10 23:06:33;;;;;;;10.67;9.57;;;14.40;99.90;;;;;;5029810;28;20201;-69
2023/05/10 23:08:59;;;;;;;11.50;9.10;;;14.30;99.90;;;;;;5031056;28;20195;-67
2023/05/10 23:11:25;;;;;;;10.50;9.30;;;14.30;99.90;;;;;;5031094;28;20449;-68
2023/05/10 23:13:50;;;;;;;15.47;10.43;;;14.30;99.90;;;;;;5024615;28;20200;-69
2023/05/10 23:16:17;;;;;;;13.00;8.60;;;14.30;99.90;;;;;;5037958;28;20171;-69
2023/05/10 23:18:43;;;;;;;12.53;9.73;;;14.30;99.90;;;;;;5030372;28;20686;-69
2023/05/10 23:21:08;;;;;;;9.20;8.30;;;14.20;99.90;;;;;;5027413;28;20505;-68
2023/05/10 23:23:34;;;;;;;12.90;9.00;;;14.20;99.90;;;;;;5027400;28;20190;-68
2023/05/10 23:26:04;;;;;;;10.63;9.03;;;14.20;99.90;;;;;;5020368;28;20178;-68
2023/05/10 23:28:29;;;;;;;14.13;9.60;;;14.20;99.90;;;;;;5021730;28;20252;-69
2023/05/10 23:30:58;;;;;;;10.40;9.40;;;14.10;99.90;;;;;;5035288;28;20437;-68
2023/05/10 23:33:27;;;;;;;10.73;9.60;;;14.10;99.90;;;;;;5044364;28;20523;-70
2023/05/10 23:35:53;;;;;;;9.80;8.23;;;14.00;99.90;;;;;;5027837;28;20424;-68
2023/05/10 23:38:19;;;;;;;12.90;9.43;;;14.00;99.90;;;;;;5015316;28;20446;-68
2023/05/10 23:40:48;;;;;;;12.70;9.93;;;14.00;99.90;;;;;;5011056;28;20413;-69
2023/05/10 23:43:16;;;;;;;10.77;9.67;;;13.90;99.90;;;;;;5003212;28;20505;-69
2023/05/10 23:45:42;;;;;;;9.67;8.67;;;13.90;99.90;;;;;;5015200;28;20415;-68
2023/05/10 23:48:08;;;;;;;12.40;9.57;;;13.90;99.90;;;;;;5020649;28;20956;-68
2023/05/10 23:50:33;;;;;;;15.20;11.47;;;13.80;99.90;;;;;;5005074;28;20418;-68
2023/05/10 23:52:59;;;;;;;14.03;10.73;;;13.80;99.90;;;;;;5013798;28;20726;-69
2023/05/10 23:55:24;;;;;;;11.00;10.00;;;13.80;99.90;;;;;;5013621;28;20246;-72
2023/05/10 23:57:50;;;;;;;13.27;11.60;;;13.70;99.90;;;;;;5021960;28;20194;-69
